<?xml version="1.0" encoding="UTF-8" standalone="no" ?>
<gpx xmlns="http://www.topografix.com/GPX/1/1" xmlns:xsi="http://www.w3.org/2001/XMLSchema-instance" xsi:schemaLocation="http://www.topografix.com/GPX/1/1 http://www.topografix.com/GPX/1/1/gpx.xsd" version="1.1" creator="VisuGPX - https://www.visugpx.com">
  <metadata>
    <name>suce_BoucleNordOuestBis_21km</name>
    <desc><![CDATA[gnerando idor: 5548821_9731105_9730670]]></desc>
  </metadata>
  <wpt lat="47.34259" lon="-1.53106">
    <ele>21.3</ele>
    <name><![CDATA[0001488]]></name>
    <type><![CDATA[Point de départ]]></type>
  </wpt>
  <wpt lat="47.34254" lon="-1.53112">
    <ele>21.1</ele>
    <name><![CDATA[0001489]]></name>
    <desc><![CDATA[<p><br /><h3>Nom: Segment: 1</h3><br />Heure de départ: 12/03/2023 14:02<br/>Heure d'arrivée: 12/03/2023 16:09<br/>Distance: 11,1km (02:07)<br/>Temps déplacement: 02:04<br/>Vitesse moyenne: 5,24 km/h<br/>Vitesse moyenne mouv.: 5,36 km/h<br/>Vitesse Max.: 8,1 km/h<br/>Altitude minimale: 3 m<br/>Altitude maximale: 38 m<br/>Vitesse de montée: 127 m/h<br/>Vitesse de descente: -156,2 m/h<br/>Gain d'altitude: 121 m<br/>Perte d'altitude: -121 m<br/>Temps de montée: 00:57<br/>Temps de descente: 00:46<br/></p>]]></desc>
    <type><![CDATA[Point d'arrivée]]></type>
  </wpt>
  <trk>
    <name><![CDATA[Suce_BoucleNordOuest_20.9km-11431393]]></name>
    <extensions>
      <line xmlns="http://www.topografix.com/GPX/gpx_style/0/2">
        <color>0000FF</color>
        <width>6</width>
      </line>
    </extensions>
    <trkseg>
      <trkpt lat="47.34248" lon="-1.53097">
        <ele>20</ele>
        <time>2024-02-04T11:52:13Z</time>
        <extensions>
          <visugpx:TrkExtension xmlns:visugpx="https://www.visugpx.com/editgpx/">
            <visugpx:node>1</visugpx:node>
            </visugpx:TrkExtension>
        </extensions>
      </trkpt>
      <trkpt lat="47.3426" lon="-1.5307">
        <ele>20</ele>
        <time>2024-02-04T11:52:42Z</time>
      </trkpt>
      <trkpt lat="47.34278" lon="-1.53053">
        <ele>21</ele>
        <time>2024-02-04T11:53:11Z</time>
      </trkpt>
      <trkpt lat="47.34291" lon="-1.52999">
        <ele>20</ele>
        <time>2024-02-04T11:54:03Z</time>
      </trkpt>
      <trkpt lat="47.34286" lon="-1.52967">
        <ele>20</ele>
        <time>2024-02-04T11:54:32Z</time>
      </trkpt>
      <trkpt lat="47.34318" lon="-1.52926">
        <ele>20</ele>
        <time>2024-02-04T11:55:29Z</time>
      </trkpt>
      <trkpt lat="47.34352" lon="-1.52898">
        <ele>20</ele>
        <time>2024-02-04T11:56:21Z</time>
      </trkpt>
      <trkpt lat="47.34367" lon="-1.52879">
        <ele>20</ele>
        <time>2024-02-04T11:56:47Z</time>
      </trkpt>
      <trkpt lat="47.34385" lon="-1.52863">
        <ele>20</ele>
        <time>2024-02-04T11:57:15Z</time>
      </trkpt>
      <trkpt lat="47.34395" lon="-1.52841">
        <ele>20</ele>
        <time>2024-02-04T11:57:39Z</time>
      </trkpt>
      <trkpt lat="47.34394" lon="-1.52811">
        <ele>20</ele>
        <time>2024-02-04T11:58:06Z</time>
      </trkpt>
      <trkpt lat="47.34398" lon="-1.52783">
        <ele>20</ele>
        <time>2024-02-04T11:58:32Z</time>
      </trkpt>
      <trkpt lat="47.34405" lon="-1.52755">
        <ele>20</ele>
        <time>2024-02-04T11:58:59Z</time>
      </trkpt>
      <trkpt lat="47.34417" lon="-1.52731">
        <ele>20</ele>
        <time>2024-02-04T11:59:26Z</time>
      </trkpt>
      <trkpt lat="47.34415" lon="-1.52703">
        <ele>21</ele>
        <time>2024-02-04T11:59:52Z</time>
      </trkpt>
      <trkpt lat="47.34427" lon="-1.5268">
        <ele>21</ele>
        <time>2024-02-04T12:00:18Z</time>
      </trkpt>
      <trkpt lat="47.34455" lon="-1.52638">
        <ele>21</ele>
        <time>2024-02-04T12:01:11Z</time>
      </trkpt>
      <trkpt lat="47.345" lon="-1.52562">
        <ele>22</ele>
        <time>2024-02-04T12:02:42Z</time>
      </trkpt>
      <trkpt lat="47.34582" lon="-1.52467">
        <ele>24</ele>
        <time>2024-02-04T12:05:01Z</time>
      </trkpt>
      <trkpt lat="47.34595" lon="-1.52446">
        <ele>24</ele>
        <time>2024-02-04T12:05:27Z</time>
      </trkpt>
      <trkpt lat="47.34611" lon="-1.52433">
        <ele>24</ele>
        <time>2024-02-04T12:05:52Z</time>
      </trkpt>
      <trkpt lat="47.34629" lon="-1.5243">
        <ele>24</ele>
        <time>2024-02-04T12:06:16Z</time>
      </trkpt>
      <trkpt lat="47.34651" lon="-1.52432">
        <ele>24</ele>
        <time>2024-02-04T12:06:45Z</time>
      </trkpt>
      <trkpt lat="47.34688" lon="-1.52428">
        <ele>24</ele>
        <time>2024-02-04T12:07:35Z</time>
      </trkpt>
      <trkpt lat="47.34733" lon="-1.5243">
        <ele>24</ele>
        <time>2024-02-04T12:08:35Z</time>
      </trkpt>
      <trkpt lat="47.34751" lon="-1.52427">
        <ele>24</ele>
        <time>2024-02-04T12:08:59Z</time>
      </trkpt>
      <trkpt lat="47.34773" lon="-1.52431">
        <ele>24</ele>
        <time>2024-02-04T12:09:28Z</time>
      </trkpt>
      <trkpt lat="47.34789" lon="-1.52487">
        <ele>25</ele>
        <time>2024-02-04T12:10:23Z</time>
      </trkpt>
      <trkpt lat="47.34801" lon="-1.5251">
        <ele>26</ele>
        <time>2024-02-04T12:10:50Z</time>
      </trkpt>
      <trkpt lat="47.34842" lon="-1.52517">
        <ele>26</ele>
        <time>2024-02-04T12:11:45Z</time>
      </trkpt>
      <trkpt lat="47.34882" lon="-1.52519">
        <ele>26</ele>
        <time>2024-02-04T12:12:38Z</time>
      </trkpt>
      <trkpt lat="47.34925" lon="-1.52529">
        <ele>26</ele>
        <time>2024-02-04T12:13:36Z</time>
      </trkpt>
      <trkpt lat="47.34946" lon="-1.52539">
        <ele>26</ele>
        <time>2024-02-04T12:14:06Z</time>
      </trkpt>
      <trkpt lat="47.34969" lon="-1.52534">
        <ele>26</ele>
        <time>2024-02-04T12:14:37Z</time>
      </trkpt>
      <trkpt lat="47.35022" lon="-1.52493">
        <ele>25</ele>
        <time>2024-02-04T12:15:57Z</time>
      </trkpt>
      <trkpt lat="47.3504" lon="-1.52482">
        <ele>25</ele>
        <time>2024-02-04T12:16:23Z</time>
      </trkpt>
      <trkpt lat="47.3506" lon="-1.52474">
        <ele>25</ele>
        <time>2024-02-04T12:16:50Z</time>
      </trkpt>
      <trkpt lat="47.35094" lon="-1.52452">
        <ele>24</ele>
        <time>2024-02-04T12:17:40Z</time>
      </trkpt>
      <trkpt lat="47.35111" lon="-1.52436">
        <ele>23</ele>
        <time>2024-02-04T12:18:07Z</time>
      </trkpt>
      <trkpt lat="47.35123" lon="-1.52412">
        <ele>23</ele>
        <time>2024-02-04T12:18:34Z</time>
      </trkpt>
      <trkpt lat="47.3513" lon="-1.52381">
        <ele>22</ele>
        <time>2024-02-04T12:19:03Z</time>
      </trkpt>
      <trkpt lat="47.35135" lon="-1.5232">
        <ele>21</ele>
        <time>2024-02-04T12:19:59Z</time>
      </trkpt>
      <trkpt lat="47.35151" lon="-1.52303">
        <ele>21</ele>
        <time>2024-02-04T12:20:25Z</time>
      </trkpt>
      <trkpt lat="47.35169" lon="-1.52307">
        <ele>20</ele>
        <time>2024-02-04T12:20:49Z</time>
      </trkpt>
      <trkpt lat="47.35251" lon="-1.52312">
        <ele>13</ele>
        <time>2024-02-04T12:22:39Z</time>
      </trkpt>
      <trkpt lat="47.35272" lon="-1.52317">
        <ele>12</ele>
        <time>2024-02-04T12:23:07Z</time>
      </trkpt>
      <trkpt lat="47.35295" lon="-1.52308">
        <ele>12</ele>
        <time>2024-02-04T12:23:39Z</time>
      </trkpt>
      <trkpt lat="47.35329" lon="-1.52282">
        <ele>11</ele>
        <time>2024-02-04T12:24:30Z</time>
      </trkpt>
      <trkpt lat="47.35402" lon="-1.52241">
        <ele>17</ele>
        <time>2024-02-04T12:26:14Z</time>
      </trkpt>
      <trkpt lat="47.35423" lon="-1.52233">
        <ele>18</ele>
        <time>2024-02-04T12:26:43Z</time>
      </trkpt>
      <trkpt lat="47.35442" lon="-1.52216">
        <ele>20</ele>
        <time>2024-02-04T12:27:13Z</time>
      </trkpt>
      <trkpt lat="47.35456" lon="-1.52194">
        <ele>20</ele>
        <time>2024-02-04T12:27:40Z</time>
      </trkpt>
      <trkpt lat="47.35468" lon="-1.52168">
        <ele>21</ele>
        <time>2024-02-04T12:28:09Z</time>
      </trkpt>
      <trkpt lat="47.35489" lon="-1.52151">
        <ele>21</ele>
        <time>2024-02-04T12:28:41Z</time>
      </trkpt>
      <trkpt lat="47.35508" lon="-1.52141">
        <ele>21</ele>
        <time>2024-02-04T12:29:08Z</time>
      </trkpt>
      <trkpt lat="47.35532" lon="-1.52139">
        <ele>21</ele>
        <time>2024-02-04T12:29:40Z</time>
      </trkpt>
      <trkpt lat="47.35575" lon="-1.52125">
        <ele>21</ele>
        <time>2024-02-04T12:30:38Z</time>
      </trkpt>
      <trkpt lat="47.35609" lon="-1.52098">
        <ele>20</ele>
        <time>2024-02-04T12:31:30Z</time>
      </trkpt>
      <trkpt lat="47.35632" lon="-1.52104">
        <ele>19</ele>
        <time>2024-02-04T12:32:01Z</time>
      </trkpt>
      <trkpt lat="47.35648" lon="-1.52121">
        <ele>18</ele>
        <time>2024-02-04T12:32:27Z</time>
      </trkpt>
      <trkpt lat="47.35708" lon="-1.52168">
        <ele>16</ele>
        <time>2024-02-04T12:33:58Z</time>
      </trkpt>
      <trkpt lat="47.35727" lon="-1.52186">
        <ele>16</ele>
        <time>2024-02-04T12:34:28Z</time>
      </trkpt>
      <trkpt lat="47.35846" lon="-1.5227">
        <ele>14</ele>
        <time>2024-02-04T12:37:24Z</time>
      </trkpt>
      <trkpt lat="47.35869" lon="-1.52266">
        <ele>14</ele>
        <time>2024-02-04T12:37:55Z</time>
      </trkpt>
      <trkpt lat="47.35911" lon="-1.52248">
        <ele>14</ele>
        <time>2024-02-04T12:38:53Z</time>
      </trkpt>
      <trkpt lat="47.35929" lon="-1.52269">
        <ele>14</ele>
        <time>2024-02-04T12:39:24Z</time>
      </trkpt>
      <trkpt lat="47.35941" lon="-1.52292">
        <ele>14</ele>
        <time>2024-02-04T12:39:50Z</time>
      </trkpt>
      <trkpt lat="47.35958" lon="-1.5227">
        <ele>13</ele>
        <time>2024-02-04T12:40:20Z</time>
      </trkpt>
      <trkpt lat="47.35993" lon="-1.52233">
        <ele>12</ele>
        <time>2024-02-04T12:41:18Z</time>
      </trkpt>
      <trkpt lat="47.36013" lon="-1.52224">
        <ele>11</ele>
        <time>2024-02-04T12:41:46Z</time>
      </trkpt>
      <trkpt lat="47.36033" lon="-1.52222">
        <ele>11</ele>
        <time>2024-02-04T12:42:13Z</time>
      </trkpt>
      <trkpt lat="47.36054" lon="-1.52227">
        <ele>11</ele>
        <time>2024-02-04T12:42:41Z</time>
      </trkpt>
      <trkpt lat="47.36077" lon="-1.52224">
        <ele>10</ele>
        <time>2024-02-04T12:43:12Z</time>
      </trkpt>
      <trkpt lat="47.36096" lon="-1.52232">
        <ele>10</ele>
        <time>2024-02-04T12:43:38Z</time>
      </trkpt>
      <trkpt lat="47.36117" lon="-1.52236">
        <ele>11</ele>
        <time>2024-02-04T12:44:06Z</time>
      </trkpt>
      <trkpt lat="47.36138" lon="-1.52244">
        <ele>11</ele>
        <time>2024-02-04T12:44:35Z</time>
      </trkpt>
      <trkpt lat="47.36203" lon="-1.5226">
        <ele>11</ele>
        <time>2024-02-04T12:46:03Z</time>
      </trkpt>
      <trkpt lat="47.3622" lon="-1.52271">
        <ele>11</ele>
        <time>2024-02-04T12:46:28Z</time>
      </trkpt>
      <trkpt lat="47.36237" lon="-1.5229">
        <ele>11</ele>
        <time>2024-02-04T12:46:56Z</time>
      </trkpt>
      <trkpt lat="47.36275" lon="-1.52402">
        <ele>12</ele>
        <time>2024-02-04T12:48:50Z</time>
      </trkpt>
      <trkpt lat="47.36299" lon="-1.52453">
        <ele>11</ele>
        <time>2024-02-04T12:49:46Z</time>
      </trkpt>
      <trkpt lat="47.36321" lon="-1.52509">
        <ele>10</ele>
        <time>2024-02-04T12:50:44Z</time>
      </trkpt>
      <trkpt lat="47.36338" lon="-1.52523">
        <ele>10</ele>
        <time>2024-02-04T12:51:10Z</time>
      </trkpt>
      <trkpt lat="47.36358" lon="-1.52544">
        <ele>10</ele>
        <time>2024-02-04T12:51:43Z</time>
      </trkpt>
      <trkpt lat="47.36418" lon="-1.52639">
        <ele>8</ele>
        <time>2024-02-04T12:53:40Z</time>
      </trkpt>
      <trkpt lat="47.36437" lon="-1.52633">
        <ele>8</ele>
        <time>2024-02-04T12:54:06Z</time>
      </trkpt>
      <trkpt lat="47.36476" lon="-1.5263">
        <ele>8</ele>
        <time>2024-02-04T12:54:59Z</time>
      </trkpt>
      <trkpt lat="47.36516" lon="-1.52611">
        <ele>9</ele>
        <time>2024-02-04T12:55:55Z</time>
      </trkpt>
      <trkpt lat="47.36535" lon="-1.52598">
        <ele>10</ele>
        <time>2024-02-04T12:56:23Z</time>
      </trkpt>
      <trkpt lat="47.36568" lon="-1.52559">
        <ele>11</ele>
        <time>2024-02-04T12:57:19Z</time>
      </trkpt>
      <trkpt lat="47.36598" lon="-1.52512">
        <ele>11</ele>
        <time>2024-02-04T12:58:17Z</time>
      </trkpt>
      <trkpt lat="47.36611" lon="-1.52485">
        <ele>10</ele>
        <time>2024-02-04T12:58:47Z</time>
      </trkpt>
      <trkpt lat="47.36628" lon="-1.52428">
        <ele>10</ele>
        <time>2024-02-04T12:59:44Z</time>
      </trkpt>
      <trkpt lat="47.36634" lon="-1.52396">
        <ele>10</ele>
        <time>2024-02-04T13:00:14Z</time>
      </trkpt>
      <trkpt lat="47.3665" lon="-1.52233">
        <ele>11</ele>
        <time>2024-02-04T13:02:42Z</time>
      </trkpt>
      <trkpt lat="47.36672" lon="-1.52175">
        <ele>11</ele>
        <time>2024-02-04T13:03:43Z</time>
      </trkpt>
      <trkpt lat="47.36698" lon="-1.52123">
        <ele>10</ele>
        <time>2024-02-04T13:04:41Z</time>
      </trkpt>
      <trkpt lat="47.36753" lon="-1.51981">
        <ele>8</ele>
        <time>2024-02-04T13:07:09Z</time>
      </trkpt>
      <trkpt lat="47.36802" lon="-1.51837">
        <ele>9</ele>
        <time>2024-02-04T13:09:34Z</time>
      </trkpt>
      <trkpt lat="47.36806" lon="-1.51804">
        <ele>9</ele>
        <time>2024-02-04T13:10:05Z</time>
      </trkpt>
      <trkpt lat="47.36802" lon="-1.51714">
        <ele>9</ele>
        <time>2024-02-04T13:11:26Z</time>
      </trkpt>
      <trkpt lat="47.36804" lon="-1.51684">
        <ele>10</ele>
        <time>2024-02-04T13:11:53Z</time>
      </trkpt>
      <trkpt lat="47.36823" lon="-1.51678">
        <ele>10</ele>
        <time>2024-02-04T13:12:19Z</time>
      </trkpt>
      <trkpt lat="47.36844" lon="-1.51676">
        <ele>10</ele>
        <time>2024-02-04T13:12:48Z</time>
      </trkpt>
      <trkpt lat="47.36888" lon="-1.51676">
        <ele>10</ele>
        <time>2024-02-04T13:13:46Z</time>
      </trkpt>
      <trkpt lat="47.36948" lon="-1.51671">
        <ele>11</ele>
        <time>2024-02-04T13:15:06Z</time>
      </trkpt>
      <trkpt lat="47.37015" lon="-1.51672">
        <ele>12</ele>
        <time>2024-02-04T13:16:36Z</time>
      </trkpt>
      <trkpt lat="47.37031" lon="-1.51691">
        <ele>12</ele>
        <time>2024-02-04T13:17:03Z</time>
      </trkpt>
      <trkpt lat="47.3705" lon="-1.517">
        <ele>12</ele>
        <time>2024-02-04T13:17:30Z</time>
      </trkpt>
      <trkpt lat="47.37069" lon="-1.51702">
        <ele>12</ele>
        <time>2024-02-04T13:17:55Z</time>
      </trkpt>
      <trkpt lat="47.37087" lon="-1.51711">
        <ele>13</ele>
        <time>2024-02-04T13:18:21Z</time>
      </trkpt>
      <trkpt lat="47.37106" lon="-1.51699">
        <ele>13</ele>
        <time>2024-02-04T13:18:48Z</time>
      </trkpt>
      <trkpt lat="47.37148" lon="-1.51626">
        <ele>14</ele>
        <time>2024-02-04T13:20:15Z</time>
      </trkpt>
      <trkpt lat="47.3716" lon="-1.51599">
        <ele>15</ele>
        <time>2024-02-04T13:20:44Z</time>
      </trkpt>
      <trkpt lat="47.3719" lon="-1.51552">
        <ele>13</ele>
        <time>2024-02-04T13:21:42Z</time>
      </trkpt>
      <trkpt lat="47.37232" lon="-1.51476">
        <ele>11</ele>
        <time>2024-02-04T13:23:11Z</time>
      </trkpt>
      <trkpt lat="47.37263" lon="-1.51434">
        <ele>10</ele>
        <time>2024-02-04T13:24:07Z</time>
      </trkpt>
      <trkpt lat="47.37307" lon="-1.51423">
        <ele>9</ele>
        <time>2024-02-04T13:25:07Z</time>
      </trkpt>
      <trkpt lat="47.37351" lon="-1.51424">
        <ele>9</ele>
        <time>2024-02-04T13:26:05Z</time>
      </trkpt>
      <trkpt lat="47.37367" lon="-1.5141">
        <ele>10</ele>
        <time>2024-02-04T13:26:30Z</time>
      </trkpt>
      <trkpt lat="47.37399" lon="-1.51365">
        <ele>11</ele>
        <time>2024-02-04T13:27:29Z</time>
      </trkpt>
      <trkpt lat="47.37411" lon="-1.51339">
        <ele>12</ele>
        <time>2024-02-04T13:27:58Z</time>
      </trkpt>
      <trkpt lat="47.37417" lon="-1.5131">
        <ele>12</ele>
        <time>2024-02-04T13:28:25Z</time>
      </trkpt>
      <trkpt lat="47.37418" lon="-1.51279">
        <ele>11</ele>
        <time>2024-02-04T13:28:53Z</time>
      </trkpt>
      <trkpt lat="47.37424" lon="-1.51247">
        <ele>11</ele>
        <time>2024-02-04T13:29:23Z</time>
      </trkpt>
      <trkpt lat="47.3742" lon="-1.51217">
        <ele>10</ele>
        <time>2024-02-04T13:29:51Z</time>
      </trkpt>
      <trkpt lat="47.37425" lon="-1.51151">
        <ele>9</ele>
        <time>2024-02-04T13:30:51Z</time>
      </trkpt>
      <trkpt lat="47.37424" lon="-1.51118">
        <ele>9</ele>
        <time>2024-02-04T13:31:21Z</time>
      </trkpt>
      <trkpt lat="47.37428" lon="-1.51086">
        <ele>8</ele>
        <time>2024-02-04T13:31:50Z</time>
      </trkpt>
      <trkpt lat="47.37416" lon="-1.51057">
        <ele>8</ele>
        <time>2024-02-04T13:32:21Z</time>
      </trkpt>
      <trkpt lat="47.3744" lon="-1.50931">
        <ele>7</ele>
        <time>2024-02-04T13:34:19Z</time>
      </trkpt>
      <trkpt lat="47.37451" lon="-1.50906">
        <ele>6</ele>
        <time>2024-02-04T13:34:46Z</time>
      </trkpt>
      <trkpt lat="47.37486" lon="-1.50873">
        <ele>6</ele>
        <time>2024-02-04T13:35:41Z</time>
      </trkpt>
      <trkpt lat="47.37506" lon="-1.50864">
        <ele>6</ele>
        <time>2024-02-04T13:36:09Z</time>
      </trkpt>
      <trkpt lat="47.37549" lon="-1.50871">
        <ele>6</ele>
        <time>2024-02-04T13:37:07Z</time>
      </trkpt>
      <trkpt lat="47.3757" lon="-1.50868">
        <ele>6</ele>
        <time>2024-02-04T13:37:35Z</time>
      </trkpt>
      <trkpt lat="47.37585" lon="-1.50848">
        <ele>6</ele>
        <time>2024-02-04T13:38:02Z</time>
      </trkpt>
      <trkpt lat="47.37623" lon="-1.50777">
        <ele>7</ele>
        <time>2024-02-04T13:39:24Z</time>
      </trkpt>
      <trkpt lat="47.3764" lon="-1.50726">
        <ele>8</ele>
        <time>2024-02-04T13:40:15Z</time>
      </trkpt>
      <trkpt lat="47.3764" lon="-1.50693">
        <ele>8</ele>
        <time>2024-02-04T13:40:45Z</time>
      </trkpt>
      <trkpt lat="47.37651" lon="-1.5067">
        <ele>9</ele>
        <time>2024-02-04T13:41:11Z</time>
      </trkpt>
      <trkpt lat="47.37735" lon="-1.50667">
        <ele>11</ele>
        <time>2024-02-04T13:43:03Z</time>
      </trkpt>
      <trkpt lat="47.37755" lon="-1.5066">
        <ele>11</ele>
        <time>2024-02-04T13:43:30Z</time>
      </trkpt>
      <trkpt lat="47.37816" lon="-1.50653">
        <ele>14</ele>
        <time>2024-02-04T13:44:52Z</time>
      </trkpt>
      <trkpt lat="47.37838" lon="-1.50653">
        <ele>14</ele>
        <time>2024-02-04T13:45:21Z</time>
      </trkpt>
      <trkpt lat="47.37881" lon="-1.50645">
        <ele>13</ele>
        <time>2024-02-04T13:46:19Z</time>
      </trkpt>
      <trkpt lat="47.37904" lon="-1.5065">
        <ele>13</ele>
        <time>2024-02-04T13:46:50Z</time>
      </trkpt>
      <trkpt lat="47.3792" lon="-1.50669">
        <ele>14</ele>
        <time>2024-02-04T13:47:17Z</time>
      </trkpt>
      <trkpt lat="47.37939" lon="-1.50654">
        <ele>12</ele>
        <time>2024-02-04T13:47:46Z</time>
      </trkpt>
      <trkpt lat="47.3796" lon="-1.50653">
        <ele>10</ele>
        <time>2024-02-04T13:48:14Z</time>
      </trkpt>
      <trkpt lat="47.37974" lon="-1.50676">
        <ele>9</ele>
        <time>2024-02-04T13:48:42Z</time>
      </trkpt>
      <trkpt lat="47.3801" lon="-1.50707">
        <ele>8</ele>
        <time>2024-02-04T13:49:38Z</time>
      </trkpt>
      <trkpt lat="47.3803" lon="-1.50714">
        <ele>7</ele>
        <time>2024-02-04T13:50:05Z</time>
      </trkpt>
      <trkpt lat="47.38049" lon="-1.50711">
        <ele>6</ele>
        <time>2024-02-04T13:50:31Z</time>
      </trkpt>
      <trkpt lat="47.38072" lon="-1.50719">
        <ele>5</ele>
        <time>2024-02-04T13:51:02Z</time>
      </trkpt>
      <trkpt lat="47.38091" lon="-1.50734">
        <ele>5</ele>
        <time>2024-02-04T13:51:31Z</time>
      </trkpt>
      <trkpt lat="47.38122" lon="-1.50765">
        <ele>6</ele>
        <time>2024-02-04T13:52:21Z</time>
      </trkpt>
      <trkpt lat="47.38142" lon="-1.50772">
        <ele>6</ele>
        <time>2024-02-04T13:52:48Z</time>
      </trkpt>
      <trkpt lat="47.38162" lon="-1.50773">
        <ele>6</ele>
        <time>2024-02-04T13:53:15Z</time>
      </trkpt>
      <trkpt lat="47.38184" lon="-1.50787">
        <ele>6</ele>
        <time>2024-02-04T13:53:47Z</time>
      </trkpt>
      <trkpt lat="47.38233" lon="-1.50842">
        <ele>6</ele>
        <time>2024-02-04T13:55:09Z</time>
      </trkpt>
      <trkpt lat="47.38249" lon="-1.50867">
        <ele>6</ele>
        <time>2024-02-04T13:55:40Z</time>
      </trkpt>
      <trkpt lat="47.38276" lon="-1.50989">
        <ele>7</ele>
        <time>2024-02-04T13:57:36Z</time>
      </trkpt>
      <trkpt lat="47.3829" lon="-1.51008">
        <ele>8</ele>
        <time>2024-02-04T13:58:02Z</time>
      </trkpt>
      <trkpt lat="47.38305" lon="-1.51022">
        <ele>8</ele>
        <time>2024-02-04T13:58:25Z</time>
      </trkpt>
      <trkpt lat="47.38322" lon="-1.51043">
        <ele>8</ele>
        <time>2024-02-04T13:58:55Z</time>
      </trkpt>
      <trkpt lat="47.38343" lon="-1.51042">
        <ele>8</ele>
        <time>2024-02-04T13:59:23Z</time>
      </trkpt>
      <trkpt lat="47.38358" lon="-1.51059">
        <ele>8</ele>
        <time>2024-02-04T13:59:48Z</time>
      </trkpt>
      <trkpt lat="47.38384" lon="-1.51105">
        <ele>7</ele>
        <time>2024-02-04T14:00:42Z</time>
      </trkpt>
      <trkpt lat="47.38406" lon="-1.51161">
        <ele>5</ele>
        <time>2024-02-04T14:01:41Z</time>
      </trkpt>
      <trkpt lat="47.38457" lon="-1.51268">
        <ele>6</ele>
        <time>2024-02-04T14:03:39Z</time>
      </trkpt>
      <trkpt lat="47.38472" lon="-1.51291">
        <ele>6</ele>
        <time>2024-02-04T14:04:08Z</time>
      </trkpt>
      <trkpt lat="47.38505" lon="-1.51329">
        <ele>7</ele>
        <time>2024-02-04T14:05:04Z</time>
      </trkpt>
      <trkpt lat="47.3857" lon="-1.51498">
        <ele>6</ele>
        <time>2024-02-04T14:07:59Z</time>
      </trkpt>
      <trkpt lat="47.38587" lon="-1.51555">
        <ele>7</ele>
        <time>2024-02-04T14:08:55Z</time>
      </trkpt>
      <trkpt lat="47.38611" lon="-1.51606">
        <ele>7</ele>
        <time>2024-02-04T14:09:52Z</time>
      </trkpt>
      <trkpt lat="47.38639" lon="-1.51685">
        <ele>8</ele>
        <time>2024-02-04T14:11:12Z</time>
      </trkpt>
      <trkpt lat="47.38652" lon="-1.51712">
        <ele>8</ele>
        <time>2024-02-04T14:11:42Z</time>
      </trkpt>
      <trkpt lat="47.38677" lon="-1.51797">
        <ele>8</ele>
        <time>2024-02-04T14:13:06Z</time>
      </trkpt>
      <trkpt lat="47.38703" lon="-1.51854">
        <ele>8</ele>
        <time>2024-02-04T14:14:08Z</time>
      </trkpt>
      <trkpt lat="47.38712" lon="-1.51888">
        <ele>8</ele>
        <time>2024-02-04T14:14:41Z</time>
      </trkpt>
      <trkpt lat="47.38732" lon="-1.51945">
        <ele>8</ele>
        <time>2024-02-04T14:15:39Z</time>
      </trkpt>
      <trkpt lat="47.38745" lon="-1.51968">
        <ele>7</ele>
        <time>2024-02-04T14:16:06Z</time>
      </trkpt>
      <trkpt lat="47.38765" lon="-1.52058">
        <ele>8</ele>
        <time>2024-02-04T14:17:32Z</time>
      </trkpt>
      <trkpt lat="47.38778" lon="-1.52148">
        <ele>8</ele>
        <time>2024-02-04T14:18:55Z</time>
      </trkpt>
      <trkpt lat="47.38792" lon="-1.52209">
        <ele>8</ele>
        <time>2024-02-04T14:19:53Z</time>
      </trkpt>
      <trkpt lat="47.38802" lon="-1.52266">
        <ele>9</ele>
        <time>2024-02-04T14:20:46Z</time>
      </trkpt>
      <trkpt lat="47.38818" lon="-1.52392">
        <ele>10</ele>
        <time>2024-02-04T14:22:42Z</time>
      </trkpt>
      <trkpt lat="47.38819" lon="-1.52418">
        <ele>10</ele>
        <time>2024-02-04T14:23:05Z</time>
      </trkpt>
      <trkpt lat="47.38833" lon="-1.52482">
        <ele>11</ele>
        <time>2024-02-04T14:24:06Z</time>
      </trkpt>
      <trkpt lat="47.3885" lon="-1.5261">
        <ele>11</ele>
        <time>2024-02-04T14:26:04Z</time>
      </trkpt>
      <trkpt lat="47.38874" lon="-1.52666">
        <ele>11</ele>
        <time>2024-02-04T14:27:04Z</time>
      </trkpt>
      <trkpt lat="47.38883" lon="-1.52726">
        <ele>13</ele>
        <time>2024-02-04T14:27:59Z</time>
      </trkpt>
      <trkpt lat="47.38866" lon="-1.52743">
        <ele>14</ele>
        <time>2024-02-04T14:28:27Z</time>
      </trkpt>
      <trkpt lat="47.38786" lon="-1.52742">
        <ele>17</ele>
        <time>2024-02-04T14:30:14Z</time>
      </trkpt>
      <trkpt lat="47.38729" lon="-1.52754">
        <ele>20</ele>
        <time>2024-02-04T14:31:30Z</time>
      </trkpt>
      <trkpt lat="47.38646" lon="-1.52757">
        <ele>22</ele>
        <time>2024-02-04T14:33:21Z</time>
      </trkpt>
      <trkpt lat="47.38535" lon="-1.52766">
        <ele>24</ele>
        <time>2024-02-04T14:35:50Z</time>
      </trkpt>
      <trkpt lat="47.38513" lon="-1.52764">
        <ele>24</ele>
        <time>2024-02-04T14:36:19Z</time>
      </trkpt>
      <trkpt lat="47.38385" lon="-1.52769">
        <ele>24</ele>
        <time>2024-02-04T14:39:10Z</time>
      </trkpt>
      <trkpt lat="47.38323" lon="-1.52767">
        <ele>24</ele>
        <time>2024-02-04T14:40:33Z</time>
      </trkpt>
      <trkpt lat="47.38302" lon="-1.52771">
        <ele>24</ele>
        <time>2024-02-04T14:41:01Z</time>
      </trkpt>
      <trkpt lat="47.38278" lon="-1.52768">
        <ele>23</ele>
        <time>2024-02-04T14:41:33Z</time>
      </trkpt>
      <trkpt lat="47.38223" lon="-1.52775">
        <ele>22</ele>
        <time>2024-02-04T14:42:47Z</time>
      </trkpt>
      <trkpt lat="47.38201" lon="-1.52781">
        <ele>21</ele>
        <time>2024-02-04T14:43:17Z</time>
      </trkpt>
      <trkpt lat="47.38161" lon="-1.5281">
        <ele>20</ele>
        <time>2024-02-04T14:44:16Z</time>
      </trkpt>
      <trkpt lat="47.3809" lon="-1.52875">
        <ele>20</ele>
        <time>2024-02-04T14:46:08Z</time>
      </trkpt>
      <trkpt lat="47.38069" lon="-1.52888">
        <ele>21</ele>
        <time>2024-02-04T14:46:38Z</time>
      </trkpt>
      <trkpt lat="47.38047" lon="-1.52896">
        <ele>21</ele>
        <time>2024-02-04T14:47:08Z</time>
      </trkpt>
      <trkpt lat="47.38012" lon="-1.52916">
        <ele>22</ele>
        <time>2024-02-04T14:47:58Z</time>
      </trkpt>
      <trkpt lat="47.38002" lon="-1.52973">
        <ele>23</ele>
        <time>2024-02-04T14:48:51Z</time>
      </trkpt>
      <trkpt lat="47.38002" lon="-1.53005">
        <ele>24</ele>
        <time>2024-02-04T14:49:20Z</time>
      </trkpt>
      <trkpt lat="47.38009" lon="-1.53095">
        <ele>26</ele>
        <time>2024-02-04T14:50:42Z</time>
      </trkpt>
      <trkpt lat="47.38006" lon="-1.53156">
        <ele>29</ele>
        <time>2024-02-04T14:51:37Z</time>
      </trkpt>
      <trkpt lat="47.37965" lon="-1.53264">
        <ele>30</ele>
        <time>2024-02-04T14:53:29Z</time>
      </trkpt>
      <trkpt lat="47.37953" lon="-1.53321">
        <ele>30</ele>
        <time>2024-02-04T14:54:23Z</time>
      </trkpt>
      <trkpt lat="47.37952" lon="-1.53352">
        <ele>30</ele>
        <time>2024-02-04T14:54:51Z</time>
      </trkpt>
      <trkpt lat="47.37959" lon="-1.53447">
        <ele>31</ele>
        <time>2024-02-04T14:56:18Z</time>
      </trkpt>
      <trkpt lat="47.37961" lon="-1.5351">
        <ele>31</ele>
        <time>2024-02-04T14:57:15Z</time>
      </trkpt>
      <trkpt lat="47.37965" lon="-1.53543">
        <ele>31</ele>
        <time>2024-02-04T14:57:45Z</time>
      </trkpt>
      <trkpt lat="47.37962" lon="-1.53643">
        <ele>32</ele>
        <time>2024-02-04T14:59:15Z</time>
      </trkpt>
      <trkpt lat="47.37951" lon="-1.53764">
        <ele>31</ele>
        <time>2024-02-04T15:01:06Z</time>
      </trkpt>
      <trkpt lat="47.37927" lon="-1.53921">
        <ele>29</ele>
        <time>2024-02-04T15:03:31Z</time>
      </trkpt>
      <trkpt lat="47.37919" lon="-1.5402">
        <ele>29</ele>
        <time>2024-02-04T15:05:01Z</time>
      </trkpt>
      <trkpt lat="47.37913" lon="-1.54052">
        <ele>28</ele>
        <time>2024-02-04T15:05:31Z</time>
      </trkpt>
      <trkpt lat="47.37907" lon="-1.5412">
        <ele>28</ele>
        <time>2024-02-04T15:06:33Z</time>
      </trkpt>
      <trkpt lat="47.37901" lon="-1.54152">
        <ele>29</ele>
        <time>2024-02-04T15:07:03Z</time>
      </trkpt>
      <trkpt lat="47.37892" lon="-1.54249">
        <ele>30</ele>
        <time>2024-02-04T15:08:32Z</time>
      </trkpt>
      <trkpt lat="47.37887" lon="-1.54281">
        <ele>30</ele>
        <time>2024-02-04T15:09:01Z</time>
      </trkpt>
      <trkpt lat="47.37877" lon="-1.54309">
        <ele>29</ele>
        <time>2024-02-04T15:09:30Z</time>
      </trkpt>
      <trkpt lat="47.37861" lon="-1.54371">
        <ele>28</ele>
        <time>2024-02-04T15:10:30Z</time>
      </trkpt>
      <trkpt lat="47.37851" lon="-1.54397">
        <ele>27</ele>
        <time>2024-02-04T15:10:57Z</time>
      </trkpt>
      <trkpt lat="47.37826" lon="-1.54484">
        <ele>27</ele>
        <time>2024-02-04T15:12:22Z</time>
      </trkpt>
      <trkpt lat="47.37804" lon="-1.54573">
        <ele>28</ele>
        <time>2024-02-04T15:13:48Z</time>
      </trkpt>
      <trkpt lat="47.37793" lon="-1.54599">
        <ele>28</ele>
        <time>2024-02-04T15:14:16Z</time>
      </trkpt>
      <trkpt lat="47.37782" lon="-1.5472">
        <ele>29</ele>
        <time>2024-02-04T15:16:06Z</time>
      </trkpt>
      <trkpt lat="47.37786" lon="-1.5475">
        <ele>30</ele>
        <time>2024-02-04T15:16:34Z</time>
      </trkpt>
      <trkpt lat="47.37784" lon="-1.5484">
        <ele>32</ele>
        <time>2024-02-04T15:17:55Z</time>
      </trkpt>
      <trkpt lat="47.37788" lon="-1.54868">
        <ele>32</ele>
        <time>2024-02-04T15:18:21Z</time>
      </trkpt>
      <trkpt lat="47.37784" lon="-1.54926">
        <ele>33</ele>
        <time>2024-02-04T15:19:14Z</time>
      </trkpt>
      <trkpt lat="47.37778" lon="-1.54953">
        <ele>32</ele>
        <time>2024-02-04T15:19:39Z</time>
      </trkpt>
      <trkpt lat="47.3778" lon="-1.54983">
        <ele>33</ele>
        <time>2024-02-04T15:20:06Z</time>
      </trkpt>
      <trkpt lat="47.37777" lon="-1.5504">
        <ele>33</ele>
        <time>2024-02-04T15:20:58Z</time>
      </trkpt>
      <trkpt lat="47.37778" lon="-1.55072">
        <ele>34</ele>
        <time>2024-02-04T15:21:27Z</time>
      </trkpt>
      <trkpt lat="47.37763" lon="-1.55126">
        <ele>33</ele>
        <time>2024-02-04T15:22:20Z</time>
      </trkpt>
      <trkpt lat="47.37756" lon="-1.55219">
        <ele>33</ele>
        <time>2024-02-04T15:23:44Z</time>
      </trkpt>
      <trkpt lat="47.37765" lon="-1.55246">
        <ele>33</ele>
        <time>2024-02-04T15:24:12Z</time>
      </trkpt>
      <trkpt lat="47.37783" lon="-1.55264">
        <ele>33</ele>
        <time>2024-02-04T15:24:41Z</time>
      </trkpt>
      <trkpt lat="47.37798" lon="-1.55289">
        <ele>33</ele>
        <time>2024-02-04T15:25:11Z</time>
      </trkpt>
      <trkpt lat="47.3783" lon="-1.55374">
        <ele>33</ele>
        <time>2024-02-04T15:26:39Z</time>
      </trkpt>
      <trkpt lat="47.37836" lon="-1.55402">
        <ele>32</ele>
        <time>2024-02-04T15:27:05Z</time>
      </trkpt>
      <trkpt lat="47.37847" lon="-1.55423">
        <ele>32</ele>
        <time>2024-02-04T15:27:29Z</time>
      </trkpt>
      <trkpt lat="47.37845" lon="-1.55449">
        <ele>32</ele>
        <time>2024-02-04T15:27:53Z</time>
      </trkpt>
      <trkpt lat="47.37834" lon="-1.55511">
        <ele>31</ele>
        <time>2024-02-04T15:28:51Z</time>
      </trkpt>
      <trkpt lat="47.37806" lon="-1.55628">
        <ele>31</ele>
        <time>2024-02-04T15:30:43Z</time>
      </trkpt>
      <trkpt lat="47.37788" lon="-1.55718">
        <ele>34</ele>
        <time>2024-02-04T15:32:08Z</time>
      </trkpt>
      <trkpt lat="47.3786" lon="-1.55772">
        <ele>35</ele>
        <time>2024-02-04T15:33:55Z</time>
      </trkpt>
      <trkpt lat="47.37826" lon="-1.55847">
        <ele>37</ele>
        <time>2024-02-04T15:35:17Z</time>
      </trkpt>
      <trkpt lat="47.37799" lon="-1.55925">
        <ele>37</ele>
        <time>2024-02-04T15:36:36Z</time>
      </trkpt>
      <trkpt lat="47.37784" lon="-1.55945">
        <ele>37</ele>
        <time>2024-02-04T15:37:03Z</time>
      </trkpt>
      <trkpt lat="47.37765" lon="-1.55947">
        <ele>38</ele>
        <time>2024-02-04T15:37:29Z</time>
      </trkpt>
      <trkpt lat="47.37726" lon="-1.56055">
        <ele>37</ele>
        <time>2024-02-04T15:39:19Z</time>
      </trkpt>
      <trkpt lat="47.37698" lon="-1.56105">
        <ele>37</ele>
        <time>2024-02-04T15:40:18Z</time>
      </trkpt>
      <trkpt lat="47.37681" lon="-1.56114">
        <ele>37</ele>
        <time>2024-02-04T15:40:42Z</time>
      </trkpt>
      <trkpt lat="47.3764" lon="-1.5613">
        <ele>37</ele>
        <time>2024-02-04T15:41:38Z</time>
      </trkpt>
      <trkpt lat="47.37626" lon="-1.56153">
        <ele>37</ele>
        <time>2024-02-04T15:42:06Z</time>
      </trkpt>
      <trkpt lat="47.37609" lon="-1.56247">
        <ele>36</ele>
        <time>2024-02-04T15:43:34Z</time>
      </trkpt>
      <trkpt lat="47.37598" lon="-1.56276">
        <ele>36</ele>
        <time>2024-02-04T15:44:04Z</time>
      </trkpt>
      <trkpt lat="47.3759" lon="-1.56308">
        <ele>35</ele>
        <time>2024-02-04T15:44:35Z</time>
      </trkpt>
      <trkpt lat="47.3758" lon="-1.56333">
        <ele>35</ele>
        <time>2024-02-04T15:45:01Z</time>
      </trkpt>
      <trkpt lat="47.37537" lon="-1.56475">
        <ele>33</ele>
        <time>2024-02-04T15:47:22Z</time>
      </trkpt>
      <trkpt lat="47.37521" lon="-1.56561">
        <ele>33</ele>
        <time>2024-02-04T15:48:43Z</time>
      </trkpt>
      <trkpt lat="47.37514" lon="-1.56688">
        <ele>33</ele>
        <time>2024-02-04T15:50:38Z</time>
      </trkpt>
      <trkpt lat="47.375" lon="-1.56782">
        <ele>32</ele>
        <time>2024-02-04T15:52:05Z</time>
      </trkpt>
      <trkpt lat="47.37492" lon="-1.56811">
        <ele>32</ele>
        <time>2024-02-04T15:52:33Z</time>
      </trkpt>
      <trkpt lat="47.37481" lon="-1.56871">
        <ele>32</ele>
        <time>2024-02-04T15:53:29Z</time>
      </trkpt>
      <trkpt lat="47.37471" lon="-1.56898">
        <ele>32</ele>
        <time>2024-02-04T15:53:57Z</time>
      </trkpt>
      <trkpt lat="47.37457" lon="-1.56925">
        <ele>32</ele>
        <time>2024-02-04T15:54:28Z</time>
      </trkpt>
      <trkpt lat="47.3744" lon="-1.56948">
        <ele>33</ele>
        <time>2024-02-04T15:54:59Z</time>
      </trkpt>
      <trkpt lat="47.37398" lon="-1.57015">
        <ele>33</ele>
        <time>2024-02-04T15:56:21Z</time>
      </trkpt>
      <trkpt lat="47.37372" lon="-1.57061">
        <ele>33</ele>
        <time>2024-02-04T15:57:15Z</time>
      </trkpt>
      <trkpt lat="47.37332" lon="-1.57162">
        <ele>36</ele>
        <time>2024-02-04T15:59:01Z</time>
      </trkpt>
      <trkpt lat="47.37354" lon="-1.57248">
        <ele>35</ele>
        <time>2024-02-04T16:00:24Z</time>
      </trkpt>
      <trkpt lat="47.3741" lon="-1.57386">
        <ele>34</ele>
        <time>2024-02-04T16:02:49Z</time>
      </trkpt>
      <trkpt lat="47.37419" lon="-1.57416">
        <ele>34</ele>
        <time>2024-02-04T16:03:19Z</time>
      </trkpt>
      <trkpt lat="47.3748" lon="-1.57583">
        <ele>32</ele>
        <time>2024-02-04T16:06:10Z</time>
      </trkpt>
      <trkpt lat="47.37488" lon="-1.57611">
        <ele>32</ele>
        <time>2024-02-04T16:06:38Z</time>
      </trkpt>
      <trkpt lat="47.37522" lon="-1.57688">
        <ele>31</ele>
        <time>2024-02-04T16:08:01Z</time>
      </trkpt>
      <trkpt lat="47.37515" lon="-1.57713">
        <ele>31</ele>
        <time>2024-02-04T16:08:25Z</time>
      </trkpt>
      <trkpt lat="47.3748" lon="-1.57745">
        <ele>31</ele>
        <time>2024-02-04T16:09:20Z</time>
      </trkpt>
      <trkpt lat="47.37439" lon="-1.57772">
        <ele>29</ele>
        <time>2024-02-04T16:10:20Z</time>
      </trkpt>
      <trkpt lat="47.37401" lon="-1.57793">
        <ele>29</ele>
        <time>2024-02-04T16:11:14Z</time>
      </trkpt>
      <trkpt lat="47.37397" lon="-1.57821">
        <ele>29</ele>
        <time>2024-02-04T16:11:40Z</time>
      </trkpt>
      <trkpt lat="47.37422" lon="-1.57934">
        <ele>28</ele>
        <time>2024-02-04T16:13:28Z</time>
      </trkpt>
      <trkpt lat="47.37439" lon="-1.57991">
        <ele>28</ele>
        <time>2024-02-04T16:14:24Z</time>
      </trkpt>
      <trkpt lat="47.37457" lon="-1.58109">
        <ele>29</ele>
        <time>2024-02-04T16:16:13Z</time>
      </trkpt>
      <trkpt lat="47.37473" lon="-1.58161">
        <ele>29</ele>
        <time>2024-02-04T16:17:05Z</time>
      </trkpt>
      <trkpt lat="47.37495" lon="-1.58209">
        <ele>30</ele>
        <time>2024-02-04T16:17:57Z</time>
      </trkpt>
      <trkpt lat="47.37504" lon="-1.58236">
        <ele>30</ele>
        <time>2024-02-04T16:18:25Z</time>
      </trkpt>
      <trkpt lat="47.37517" lon="-1.58262">
        <ele>30</ele>
        <time>2024-02-04T16:18:54Z</time>
      </trkpt>
      <trkpt lat="47.37498" lon="-1.58263">
        <ele>30</ele>
        <time>2024-02-04T16:19:19Z</time>
      </trkpt>
      <trkpt lat="47.37479" lon="-1.58273">
        <ele>30</ele>
        <time>2024-02-04T16:19:46Z</time>
      </trkpt>
      <trkpt lat="47.37461" lon="-1.58279">
        <ele>29</ele>
        <time>2024-02-04T16:20:11Z</time>
      </trkpt>
      <trkpt lat="47.37441" lon="-1.58292">
        <ele>29</ele>
        <time>2024-02-04T16:20:40Z</time>
      </trkpt>
      <trkpt lat="47.37421" lon="-1.583">
        <ele>29</ele>
        <time>2024-02-04T16:21:07Z</time>
      </trkpt>
      <trkpt lat="47.37401" lon="-1.58314">
        <ele>29</ele>
        <time>2024-02-04T16:21:37Z</time>
      </trkpt>
      <trkpt lat="47.37381" lon="-1.58324">
        <ele>29</ele>
        <time>2024-02-04T16:22:05Z</time>
      </trkpt>
      <trkpt lat="47.37364" lon="-1.58338">
        <ele>29</ele>
        <time>2024-02-04T16:22:31Z</time>
      </trkpt>
      <trkpt lat="47.37325" lon="-1.58357">
        <ele>29</ele>
        <time>2024-02-04T16:23:26Z</time>
      </trkpt>
      <trkpt lat="47.37308" lon="-1.58372">
        <ele>29</ele>
        <time>2024-02-04T16:23:52Z</time>
      </trkpt>
      <trkpt lat="47.3729" lon="-1.58376">
        <ele>30</ele>
        <time>2024-02-04T16:24:17Z</time>
      </trkpt>
      <trkpt lat="47.37272" lon="-1.58376">
        <ele>30</ele>
        <time>2024-02-04T16:24:41Z</time>
      </trkpt>
      <trkpt lat="47.37192" lon="-1.58413">
        <ele>32</ele>
        <time>2024-02-04T16:28:24Z</time>
      </trkpt>
      <trkpt lat="47.37168" lon="-1.58425">
        <ele>32.9</ele>
        <time>2024-02-04T16:28:49Z</time>
      </trkpt>
      <trkpt lat="47.37144" lon="-1.5844">
        <ele>33.7</ele>
        <time>2024-02-04T16:30:15Z</time>
      </trkpt>
      <trkpt lat="47.37123" lon="-1.58448">
        <ele>34.6</ele>
        <time>2024-02-04T16:31:38Z</time>
      </trkpt>
      <trkpt lat="47.37102" lon="-1.58452">
        <ele>35.1</ele>
        <time>2024-02-04T16:32:58Z</time>
      </trkpt>
      <trkpt lat="47.37091" lon="-1.58462">
        <ele>35.5</ele>
        <time>2024-02-04T16:33:23Z</time>
      </trkpt>
      <trkpt lat="47.37077" lon="-1.58468">
        <ele>35.9</ele>
        <time>2024-02-04T16:34:44Z</time>
      </trkpt>
      <trkpt lat="47.37066" lon="-1.58475">
        <ele>36.1</ele>
        <time>2024-02-04T16:35:12Z</time>
      </trkpt>
      <trkpt lat="47.37056" lon="-1.58481">
        <ele>36.3</ele>
        <time>2024-02-04T16:36:00Z</time>
      </trkpt>
      <trkpt lat="47.37039" lon="-1.58492">
        <ele>36.9</ele>
        <time>2024-02-04T16:37:24Z</time>
      </trkpt>
      <trkpt lat="47.37" lon="-1.5851">
        <ele>37.4</ele>
        <time>2024-02-04T16:38:17Z</time>
      </trkpt>
      <trkpt lat="47.36958" lon="-1.58535">
        <ele>38</ele>
        <time>2024-02-04T16:39:11Z</time>
      </trkpt>
      <trkpt lat="47.36931" lon="-1.58553">
        <ele>38</ele>
        <time>2024-02-04T16:39:40Z</time>
      </trkpt>
      <trkpt lat="47.36883" lon="-1.58597">
        <ele>38</ele>
        <time>2024-02-04T16:40:06Z</time>
      </trkpt>
      <trkpt lat="47.36846" lon="-1.58673">
        <ele>38</ele>
      </trkpt>
      <trkpt lat="47.36764" lon="-1.58717">
        <ele>37.5</ele>
      </trkpt>
      <trkpt lat="47.36697" lon="-1.58863">
        <ele>33</ele>
      </trkpt>
      <trkpt lat="47.36652" lon="-1.58837">
        <ele>33.3</ele>
      </trkpt>
      <trkpt lat="47.36569" lon="-1.5875">
        <ele>34.4</ele>
        <time>2024-02-04T16:41:04Z</time>
      </trkpt>
      <trkpt lat="47.36485" lon="-1.58578">
        <ele>37</ele>
        <time>2024-02-04T16:41:28Z</time>
      </trkpt>
      <trkpt lat="47.36385" lon="-1.58394">
        <ele>32.9</ele>
        <time>2024-02-04T16:41:56Z</time>
      </trkpt>
      <trkpt lat="47.36377" lon="-1.58376">
        <ele>32.6</ele>
        <time>2024-02-04T16:42:51Z</time>
      </trkpt>
      <trkpt lat="47.3637" lon="-1.58358">
        <ele>32.3</ele>
        <time>2024-02-04T16:43:19Z</time>
      </trkpt>
      <trkpt lat="47.36362" lon="-1.58342">
        <ele>32</ele>
        <time>2024-02-04T16:43:44Z</time>
      </trkpt>
      <trkpt lat="47.36353" lon="-1.58325">
        <ele>32</ele>
        <time>2024-02-04T16:46:12Z</time>
      </trkpt>
      <trkpt lat="47.36346" lon="-1.58291">
        <ele>32</ele>
        <time>2024-02-04T16:47:12Z</time>
      </trkpt>
      <trkpt lat="47.36335" lon="-1.58254">
        <ele>32</ele>
        <time>2024-02-04T16:48:02Z</time>
      </trkpt>
      <trkpt lat="47.36312" lon="-1.58248">
        <ele>32</ele>
        <time>2024-02-04T16:48:34Z</time>
      </trkpt>
      <trkpt lat="47.36291" lon="-1.58255">
        <ele>32</ele>
        <time>2024-02-04T16:49:02Z</time>
      </trkpt>
      <trkpt lat="47.36272" lon="-1.58268">
        <ele>31</ele>
        <time>2024-02-04T16:49:30Z</time>
      </trkpt>
      <trkpt lat="47.36253" lon="-1.58274">
        <ele>31</ele>
        <time>2024-02-04T16:49:56Z</time>
      </trkpt>
      <trkpt lat="47.36233" lon="-1.58273">
        <ele>31</ele>
        <time>2024-02-04T16:50:23Z</time>
      </trkpt>
      <trkpt lat="47.36215" lon="-1.58256">
        <ele>30</ele>
        <time>2024-02-04T16:50:51Z</time>
      </trkpt>
      <trkpt lat="47.362" lon="-1.58233">
        <ele>29</ele>
        <time>2024-02-04T16:51:20Z</time>
      </trkpt>
      <trkpt lat="47.36167" lon="-1.58199">
        <ele>26</ele>
        <time>2024-02-04T16:52:14Z</time>
      </trkpt>
      <trkpt lat="47.36111" lon="-1.58161">
        <ele>22</ele>
        <time>2024-02-04T16:53:36Z</time>
      </trkpt>
      <trkpt lat="47.36096" lon="-1.58142">
        <ele>22</ele>
        <time>2024-02-04T16:54:03Z</time>
      </trkpt>
      <trkpt lat="47.36085" lon="-1.58117">
        <ele>23</ele>
        <time>2024-02-04T16:54:30Z</time>
      </trkpt>
      <trkpt lat="47.36081" lon="-1.58091">
        <ele>24</ele>
        <time>2024-02-04T16:54:54Z</time>
      </trkpt>
      <trkpt lat="47.36031" lon="-1.57922">
        <ele>21</ele>
        <time>2024-02-04T16:57:40Z</time>
      </trkpt>
      <trkpt lat="47.36011" lon="-1.57874">
        <ele>21</ele>
        <time>2024-02-04T16:58:31Z</time>
      </trkpt>
      <trkpt lat="47.35986" lon="-1.57823">
        <ele>22</ele>
        <time>2024-02-04T16:59:28Z</time>
      </trkpt>
      <trkpt lat="47.35969" lon="-1.57804">
        <ele>22</ele>
        <time>2024-02-04T16:59:57Z</time>
      </trkpt>
      <trkpt lat="47.35942" lon="-1.57756">
        <ele>25</ele>
        <time>2024-02-04T17:00:53Z</time>
      </trkpt>
      <trkpt lat="47.35927" lon="-1.57741">
        <ele>26</ele>
        <time>2024-02-04T17:01:17Z</time>
      </trkpt>
      <trkpt lat="47.3591" lon="-1.57719">
        <ele>26</ele>
        <time>2024-02-04T17:01:47Z</time>
      </trkpt>
      <trkpt lat="47.35892" lon="-1.57705">
        <ele>26</ele>
        <time>2024-02-04T17:02:15Z</time>
      </trkpt>
      <trkpt lat="47.35874" lon="-1.57697">
        <ele>26</ele>
        <time>2024-02-04T17:02:40Z</time>
      </trkpt>
      <trkpt lat="47.35845" lon="-1.5767">
        <ele>29</ele>
        <time>2024-02-04T17:03:25Z</time>
      </trkpt>
      <trkpt lat="47.3584" lon="-1.5764">
        <ele>29</ele>
        <time>2024-02-04T17:03:53Z</time>
      </trkpt>
      <trkpt lat="47.35847" lon="-1.57585">
        <ele>30</ele>
        <time>2024-02-04T17:04:44Z</time>
      </trkpt>
      <trkpt lat="47.35847" lon="-1.57529">
        <ele>28</ele>
        <time>2024-02-04T17:05:35Z</time>
      </trkpt>
      <trkpt lat="47.35829" lon="-1.57517">
        <ele>28</ele>
        <time>2024-02-04T17:06:01Z</time>
      </trkpt>
      <trkpt lat="47.35809" lon="-1.57522">
        <ele>28</ele>
        <time>2024-02-04T17:06:28Z</time>
      </trkpt>
      <trkpt lat="47.35765" lon="-1.57545">
        <ele>27</ele>
        <time>2024-02-04T17:07:30Z</time>
      </trkpt>
      <trkpt lat="47.35744" lon="-1.57548">
        <ele>27</ele>
        <time>2024-02-04T17:07:58Z</time>
      </trkpt>
      <trkpt lat="47.35724" lon="-1.57546">
        <ele>28</ele>
        <time>2024-02-04T17:08:25Z</time>
      </trkpt>
      <trkpt lat="47.35685" lon="-1.57528">
        <ele>28</ele>
        <time>2024-02-04T17:09:20Z</time>
      </trkpt>
      <trkpt lat="47.35649" lon="-1.57507">
        <ele>28</ele>
        <time>2024-02-04T17:10:11Z</time>
      </trkpt>
      <trkpt lat="47.35585" lon="-1.57431">
        <ele>24</ele>
        <time>2024-02-04T17:12:01Z</time>
      </trkpt>
      <trkpt lat="47.35526" lon="-1.57399">
        <ele>20</ele>
        <time>2024-02-04T17:13:25Z</time>
      </trkpt>
      <trkpt lat="47.35503" lon="-1.57392">
        <ele>19</ele>
        <time>2024-02-04T17:13:56Z</time>
      </trkpt>
      <trkpt lat="47.35486" lon="-1.57375">
        <ele>18</ele>
        <time>2024-02-04T17:14:24Z</time>
      </trkpt>
      <trkpt lat="47.35463" lon="-1.57366">
        <ele>17</ele>
        <time>2024-02-04T17:14:55Z</time>
      </trkpt>
      <trkpt lat="47.35443" lon="-1.57371">
        <ele>16</ele>
        <time>2024-02-04T17:15:22Z</time>
      </trkpt>
      <trkpt lat="47.35424" lon="-1.57372">
        <ele>16</ele>
        <time>2024-02-04T17:15:48Z</time>
      </trkpt>
      <trkpt lat="47.35383" lon="-1.57394">
        <ele>14</ele>
        <time>2024-02-04T17:16:46Z</time>
      </trkpt>
      <trkpt lat="47.35363" lon="-1.57408">
        <ele>13</ele>
        <time>2024-02-04T17:17:16Z</time>
      </trkpt>
      <trkpt lat="47.35342" lon="-1.57411">
        <ele>12</ele>
        <time>2024-02-04T17:17:44Z</time>
      </trkpt>
      <trkpt lat="47.35321" lon="-1.57408">
        <ele>12</ele>
        <time>2024-02-04T17:18:12Z</time>
      </trkpt>
      <trkpt lat="47.35262" lon="-1.57417">
        <ele>14</ele>
        <time>2024-02-04T17:19:31Z</time>
      </trkpt>
      <trkpt lat="47.35239" lon="-1.57416">
        <ele>14</ele>
        <time>2024-02-04T17:20:02Z</time>
      </trkpt>
      <trkpt lat="47.35219" lon="-1.57406">
        <ele>14</ele>
        <time>2024-02-04T17:20:30Z</time>
      </trkpt>
      <trkpt lat="47.35202" lon="-1.5739">
        <ele>14</ele>
        <time>2024-02-04T17:20:57Z</time>
      </trkpt>
      <trkpt lat="47.35173" lon="-1.57348">
        <ele>15</ele>
        <time>2024-02-04T17:21:51Z</time>
      </trkpt>
      <trkpt lat="47.35147" lon="-1.573">
        <ele>18</ele>
        <time>2024-02-04T17:22:47Z</time>
      </trkpt>
      <trkpt lat="47.35143" lon="-1.57272">
        <ele>20</ele>
        <time>2024-02-04T17:23:12Z</time>
      </trkpt>
      <trkpt lat="47.3515" lon="-1.57245">
        <ele>21</ele>
        <time>2024-02-04T17:23:39Z</time>
      </trkpt>
      <trkpt lat="47.35154" lon="-1.57215">
        <ele>21</ele>
        <time>2024-02-04T17:24:06Z</time>
      </trkpt>
      <trkpt lat="47.35165" lon="-1.57188">
        <ele>20</ele>
        <time>2024-02-04T17:24:35Z</time>
      </trkpt>
      <trkpt lat="47.35191" lon="-1.5714">
        <ele>17</ele>
        <time>2024-02-04T17:25:30Z</time>
      </trkpt>
      <trkpt lat="47.35195" lon="-1.57114">
        <ele>17</ele>
        <time>2024-02-04T17:25:54Z</time>
      </trkpt>
      <trkpt lat="47.35193" lon="-1.57087">
        <ele>17</ele>
        <time>2024-02-04T17:26:19Z</time>
      </trkpt>
      <trkpt lat="47.35186" lon="-1.57059">
        <ele>17</ele>
        <time>2024-02-04T17:26:46Z</time>
      </trkpt>
      <trkpt lat="47.35163" lon="-1.5691">
        <ele>15</ele>
        <time>2024-02-04T17:29:04Z</time>
      </trkpt>
      <trkpt lat="47.35149" lon="-1.56854">
        <ele>16</ele>
        <time>2024-02-04T17:29:58Z</time>
      </trkpt>
      <trkpt lat="47.35147" lon="-1.56825">
        <ele>16</ele>
        <time>2024-02-04T17:30:24Z</time>
      </trkpt>
      <trkpt lat="47.35152" lon="-1.56797">
        <ele>15</ele>
        <time>2024-02-04T17:30:51Z</time>
      </trkpt>
      <trkpt lat="47.35154" lon="-1.56768">
        <ele>15</ele>
        <time>2024-02-04T17:31:17Z</time>
      </trkpt>
      <trkpt lat="47.35147" lon="-1.56741">
        <ele>16</ele>
        <time>2024-02-04T17:31:43Z</time>
      </trkpt>
      <trkpt lat="47.35144" lon="-1.56714">
        <ele>16</ele>
        <time>2024-02-04T17:32:08Z</time>
      </trkpt>
      <trkpt lat="47.35149" lon="-1.56683">
        <ele>16</ele>
        <time>2024-02-04T17:32:37Z</time>
      </trkpt>
      <trkpt lat="47.35179" lon="-1.56563">
        <ele>30</ele>
        <time>2024-02-04T17:34:32Z</time>
      </trkpt>
      <trkpt lat="47.35169" lon="-1.56507">
        <ele>34</ele>
        <time>2024-02-04T17:35:25Z</time>
      </trkpt>
      <trkpt lat="47.35161" lon="-1.56482">
        <ele>35</ele>
        <time>2024-02-04T17:35:50Z</time>
      </trkpt>
      <trkpt lat="47.35132" lon="-1.56437">
        <ele>36</ele>
        <time>2024-02-04T17:36:46Z</time>
      </trkpt>
      <trkpt lat="47.35104" lon="-1.56362">
        <ele>38</ele>
        <time>2024-02-04T17:38:03Z</time>
      </trkpt>
      <trkpt lat="47.35092" lon="-1.56311">
        <ele>39</ele>
        <time>2024-02-04T17:38:52Z</time>
      </trkpt>
      <trkpt lat="47.35088" lon="-1.56283">
        <ele>40</ele>
        <time>2024-02-04T17:39:18Z</time>
      </trkpt>
      <trkpt lat="47.3508" lon="-1.56163">
        <ele>40</ele>
        <time>2024-02-04T17:41:07Z</time>
      </trkpt>
      <trkpt lat="47.35082" lon="-1.56106">
        <ele>39</ele>
        <time>2024-02-04T17:41:58Z</time>
      </trkpt>
      <trkpt lat="47.35094" lon="-1.56047">
        <ele>37</ele>
        <time>2024-02-04T17:42:54Z</time>
      </trkpt>
      <trkpt lat="47.35118" lon="-1.55993">
        <ele>36</ele>
        <time>2024-02-04T17:43:53Z</time>
      </trkpt>
      <trkpt lat="47.35135" lon="-1.55973">
        <ele>36</ele>
        <time>2024-02-04T17:44:22Z</time>
      </trkpt>
      <trkpt lat="47.35156" lon="-1.55961">
        <ele>36</ele>
        <time>2024-02-04T17:44:52Z</time>
      </trkpt>
      <trkpt lat="47.35146" lon="-1.55934">
        <ele>35</ele>
        <time>2024-02-04T17:45:19Z</time>
      </trkpt>
      <trkpt lat="47.35129" lon="-1.55912">
        <ele>35</ele>
        <time>2024-02-04T17:45:50Z</time>
      </trkpt>
      <trkpt lat="47.35114" lon="-1.55896">
        <ele>34</ele>
        <time>2024-02-04T17:46:14Z</time>
      </trkpt>
      <trkpt lat="47.35094" lon="-1.55888">
        <ele>34</ele>
        <time>2024-02-04T17:46:42Z</time>
      </trkpt>
      <trkpt lat="47.35072" lon="-1.5589">
        <ele>34</ele>
        <time>2024-02-04T17:47:11Z</time>
      </trkpt>
      <trkpt lat="47.35052" lon="-1.55895">
        <ele>34</ele>
        <time>2024-02-04T17:47:38Z</time>
      </trkpt>
      <trkpt lat="47.35031" lon="-1.55905">
        <ele>33</ele>
        <time>2024-02-04T17:48:08Z</time>
      </trkpt>
      <trkpt lat="47.34968" lon="-1.55919">
        <ele>33</ele>
        <time>2024-02-04T17:49:33Z</time>
      </trkpt>
      <trkpt lat="47.34951" lon="-1.55929">
        <ele>33</ele>
        <time>2024-02-04T17:49:57Z</time>
      </trkpt>
      <trkpt lat="47.34933" lon="-1.55914">
        <ele>32</ele>
        <time>2024-02-04T17:50:25Z</time>
      </trkpt>
      <trkpt lat="47.34908" lon="-1.55831">
        <ele>30</ele>
        <time>2024-02-04T17:51:47Z</time>
      </trkpt>
      <trkpt lat="47.34897" lon="-1.55805">
        <ele>29</ele>
        <time>2024-02-04T17:52:15Z</time>
      </trkpt>
      <trkpt lat="47.34832" lon="-1.55681">
        <ele>26</ele>
        <time>2024-02-04T17:54:37Z</time>
      </trkpt>
      <trkpt lat="47.34806" lon="-1.55637">
        <ele>27</ele>
        <time>2024-02-04T17:55:29Z</time>
      </trkpt>
      <trkpt lat="47.34796" lon="-1.55611">
        <ele>28</ele>
        <time>2024-02-04T17:55:56Z</time>
      </trkpt>
      <trkpt lat="47.34764" lon="-1.55501">
        <ele>31</ele>
        <time>2024-02-04T17:57:45Z</time>
      </trkpt>
      <trkpt lat="47.34737" lon="-1.55386">
        <ele>31</ele>
        <time>2024-02-04T17:59:35Z</time>
      </trkpt>
      <trkpt lat="47.34743" lon="-1.5536">
        <ele>30</ele>
        <time>2024-02-04T17:59:59Z</time>
      </trkpt>
      <trkpt lat="47.34761" lon="-1.55356">
        <ele>30</ele>
        <time>2024-02-04T18:00:24Z</time>
      </trkpt>
      <trkpt lat="47.34782" lon="-1.55355">
        <ele>31</ele>
        <time>2024-02-04T18:00:52Z</time>
      </trkpt>
      <trkpt lat="47.34802" lon="-1.55347">
        <ele>31</ele>
        <time>2024-02-04T18:01:19Z</time>
      </trkpt>
      <trkpt lat="47.34858" lon="-1.55301">
        <ele>31</ele>
        <time>2024-02-04T18:02:45Z</time>
      </trkpt>
      <trkpt lat="47.34915" lon="-1.55263">
        <ele>32</ele>
        <time>2024-02-04T18:04:08Z</time>
      </trkpt>
      <trkpt lat="47.35013" lon="-1.55221">
        <ele>34</ele>
        <time>2024-02-04T18:06:25Z</time>
      </trkpt>
      <trkpt lat="47.35071" lon="-1.55185">
        <ele>36</ele>
        <time>2024-02-04T18:07:49Z</time>
      </trkpt>
      <trkpt lat="47.35093" lon="-1.55176">
        <ele>36</ele>
        <time>2024-02-04T18:08:19Z</time>
      </trkpt>
      <trkpt lat="47.35113" lon="-1.5516">
        <ele>37</ele>
        <time>2024-02-04T18:08:49Z</time>
      </trkpt>
      <trkpt lat="47.35128" lon="-1.55107">
        <ele>37</ele>
        <time>2024-02-04T18:09:41Z</time>
      </trkpt>
      <trkpt lat="47.35141" lon="-1.55043">
        <ele>36</ele>
        <time>2024-02-04T18:10:42Z</time>
      </trkpt>
      <trkpt lat="47.35169" lon="-1.54954">
        <ele>35</ele>
        <time>2024-02-04T18:12:10Z</time>
      </trkpt>
      <trkpt lat="47.35179" lon="-1.54928">
        <ele>35</ele>
        <time>2024-02-04T18:12:37Z</time>
      </trkpt>
      <trkpt lat="47.35205" lon="-1.54886">
        <ele>35</ele>
        <time>2024-02-04T18:13:29Z</time>
      </trkpt>
      <trkpt lat="47.35244" lon="-1.54809">
        <ele>34</ele>
        <time>2024-02-04T18:14:56Z</time>
      </trkpt>
      <trkpt lat="47.35252" lon="-1.54782">
        <ele>34</ele>
        <time>2024-02-04T18:15:22Z</time>
      </trkpt>
      <trkpt lat="47.35216" lon="-1.54701">
        <ele>30</ele>
        <time>2024-02-04T18:16:50Z</time>
      </trkpt>
      <trkpt lat="47.35181" lon="-1.54594">
        <ele>29</ele>
        <time>2024-02-04T18:18:37Z</time>
      </trkpt>
      <trkpt lat="47.35162" lon="-1.5458">
        <ele>29</ele>
        <time>2024-02-04T18:19:06Z</time>
      </trkpt>
      <trkpt lat="47.35143" lon="-1.54574">
        <ele>29</ele>
        <time>2024-02-04T18:19:32Z</time>
      </trkpt>
      <trkpt lat="47.35122" lon="-1.54577">
        <ele>29</ele>
        <time>2024-02-04T18:20:00Z</time>
      </trkpt>
      <trkpt lat="47.35103" lon="-1.54573">
        <ele>29</ele>
        <time>2024-02-04T18:20:26Z</time>
      </trkpt>
      <trkpt lat="47.35065" lon="-1.54552">
        <ele>29</ele>
        <time>2024-02-04T18:21:20Z</time>
      </trkpt>
      <trkpt lat="47.35051" lon="-1.54532">
        <ele>29</ele>
        <time>2024-02-04T18:21:46Z</time>
      </trkpt>
      <trkpt lat="47.35035" lon="-1.54515">
        <ele>30</ele>
        <time>2024-02-04T18:22:12Z</time>
      </trkpt>
      <trkpt lat="47.35008" lon="-1.54468">
        <ele>31</ele>
        <time>2024-02-04T18:23:08Z</time>
      </trkpt>
      <trkpt lat="47.34969" lon="-1.54362">
        <ele>34</ele>
        <time>2024-02-04T18:24:57Z</time>
      </trkpt>
      <trkpt lat="47.34961" lon="-1.54332">
        <ele>34</ele>
        <time>2024-02-04T18:25:26Z</time>
      </trkpt>
      <trkpt lat="47.34933" lon="-1.54251">
        <ele>35</ele>
        <time>2024-02-04T18:26:48Z</time>
      </trkpt>
      <trkpt lat="47.34909" lon="-1.54203">
        <ele>34</ele>
        <time>2024-02-04T18:27:42Z</time>
      </trkpt>
      <trkpt lat="47.34892" lon="-1.54148">
        <ele>34</ele>
        <time>2024-02-04T18:28:37Z</time>
      </trkpt>
      <trkpt lat="47.3487" lon="-1.54091">
        <ele>35</ele>
        <time>2024-02-04T18:29:36Z</time>
      </trkpt>
      <trkpt lat="47.34862" lon="-1.54062">
        <ele>35</ele>
        <time>2024-02-04T18:30:04Z</time>
      </trkpt>
      <trkpt lat="47.3485" lon="-1.54037">
        <ele>35</ele>
        <time>2024-02-04T18:30:32Z</time>
      </trkpt>
      <trkpt lat="47.34821" lon="-1.53991">
        <ele>36</ele>
        <time>2024-02-04T18:31:29Z</time>
      </trkpt>
      <trkpt lat="47.3481" lon="-1.53969">
        <ele>36</ele>
        <time>2024-02-04T18:31:54Z</time>
      </trkpt>
      <trkpt lat="47.34765" lon="-1.53907">
        <ele>36</ele>
        <time>2024-02-04T18:33:16Z</time>
      </trkpt>
      <trkpt lat="47.3475" lon="-1.53881">
        <ele>36</ele>
        <time>2024-02-04T18:33:47Z</time>
      </trkpt>
      <trkpt lat="47.34733" lon="-1.53862">
        <ele>36</ele>
        <time>2024-02-04T18:34:15Z</time>
      </trkpt>
      <trkpt lat="47.34689" lon="-1.53796">
        <ele>37</ele>
        <time>2024-02-04T18:35:39Z</time>
      </trkpt>
      <trkpt lat="47.34671" lon="-1.53777">
        <ele>37</ele>
        <time>2024-02-04T18:36:08Z</time>
      </trkpt>
      <trkpt lat="47.34658" lon="-1.53752">
        <ele>37</ele>
        <time>2024-02-04T18:36:37Z</time>
      </trkpt>
      <trkpt lat="47.34614" lon="-1.53684">
        <ele>38</ele>
        <time>2024-02-04T18:38:02Z</time>
      </trkpt>
      <trkpt lat="47.34582" lon="-1.53643">
        <ele>38</ele>
        <time>2024-02-04T18:38:58Z</time>
      </trkpt>
      <trkpt lat="47.34535" lon="-1.53574">
        <ele>35</ele>
        <time>2024-02-04T18:40:27Z</time>
      </trkpt>
      <trkpt lat="47.34507" lon="-1.53525">
        <ele>33</ele>
        <time>2024-02-04T18:41:25Z</time>
      </trkpt>
      <trkpt lat="47.34497" lon="-1.53497">
        <ele>32</ele>
        <time>2024-02-04T18:41:53Z</time>
      </trkpt>
      <trkpt lat="47.34482" lon="-1.53474">
        <ele>31</ele>
        <time>2024-02-04T18:42:22Z</time>
      </trkpt>
      <trkpt lat="47.34471" lon="-1.53448">
        <ele>31</ele>
        <time>2024-02-04T18:42:50Z</time>
      </trkpt>
      <trkpt lat="47.34412" lon="-1.5338">
        <ele>29</ele>
        <time>2024-02-04T18:44:30Z</time>
      </trkpt>
      <trkpt lat="47.34381" lon="-1.53334">
        <ele>29</ele>
        <time>2024-02-04T18:45:29Z</time>
      </trkpt>
      <trkpt lat="47.3434" lon="-1.53262">
        <ele>27</ele>
        <time>2024-02-04T18:46:54Z</time>
      </trkpt>
      <trkpt lat="47.34334" lon="-1.53235">
        <ele>25</ele>
        <time>2024-02-04T18:47:19Z</time>
      </trkpt>
      <trkpt lat="47.34324" lon="-1.53208">
        <ele>24</ele>
        <time>2024-02-04T18:47:47Z</time>
      </trkpt>
      <trkpt lat="47.34308" lon="-1.53191">
        <ele>24</ele>
        <time>2024-02-04T18:48:13Z</time>
      </trkpt>
      <trkpt lat="47.34288" lon="-1.53188">
        <ele>23</ele>
        <time>2024-02-04T18:48:40Z</time>
      </trkpt>
      <trkpt lat="47.34269" lon="-1.53181">
        <ele>23</ele>
        <time>2024-02-04T18:49:06Z</time>
      </trkpt>
      <trkpt lat="47.34258" lon="-1.53154">
        <ele>22</ele>
        <time>2024-02-04T18:49:35Z</time>
      </trkpt>
      <trkpt lat="47.3424" lon="-1.53134">
        <ele>21</ele>
        <time>2024-02-04T18:50:05Z</time>
      </trkpt>
      <trkpt lat="47.34221" lon="-1.53136">
        <ele>20</ele>
        <time>2024-02-04T18:50:30Z</time>
      </trkpt>
    </trkseg>
  </trk>
</gpx>